createdAt,value
2022-07-29T00:00:02.734Z,93.1
2022-07-29T00:01:12.837Z,93.1
2022-07-29T00:02:21.985Z,93.8
2022-07-29T00:03:32.088Z,92.7
2022-07-29T00:04:42.218Z,92.9
2022-07-29T00:05:52.332Z,93.6
2022-07-29T00:07:02.457Z,94.5
2022-07-29T00:08:12.563Z,94
2022-07-29T00:09:22.681Z,93.6
2022-07-29T00:10:32.801Z,93.4
2022-07-29T00:11:42.922Z,93.5
2022-07-29T00:12:53.047Z,93.1
2022-07-29T00:14:03.151Z,93.6
2022-07-29T00:15:13.274Z,93.3
2022-07-29T00:16:23.384Z,94.8
2022-07-29T00:17:32.530Z,94.6
2022-07-29T00:18:42.651Z,94.2
2022-07-29T00:21:02.883Z,94.9
2022-07-29T00:22:12.995Z,94.5
2022-07-29T00:23:23.123Z,93.9
2022-07-29T00:24:33.233Z,93.6
2022-07-29T00:25:43.339Z,93.7
2022-07-29T00:26:53.468Z,94.2
2022-07-29T00:28:03.580Z,93.2
2022-07-29T00:29:13.706Z,93.9
2022-07-29T00:30:23.816Z,94.2
2022-07-29T00:31:33.935Z,94.5
2022-07-29T00:32:43.329Z,93.6
2022-07-29T00:33:53.199Z,94.4
2022-07-29T00:35:03.305Z,93.9
2022-07-29T00:36:13.423Z,94.2
2022-07-29T00:37:23.551Z,93.9
2022-07-29T00:38:33.656Z,94.4
2022-07-29T00:39:43.780Z,94.8
2022-07-29T00:42:04.000Z,93.8
2022-07-29T00:43:14.136Z,93.8
2022-07-29T00:44:24.252Z,94.4
2022-07-29T00:45:34.359Z,93.1
2022-07-29T00:46:44.475Z,93.9
2022-07-29T00:49:03.736Z,93.9
2022-07-29T00:50:13.864Z,94.9
2022-07-29T00:51:23.969Z,94.5
2022-07-29T00:52:34.089Z,95.6
2022-07-29T00:53:44.212Z,94.8
2022-07-29T00:54:54.327Z,94.1
2022-07-29T00:56:04.435Z,95.3
2022-07-29T00:57:14.567Z,95.6
2022-07-29T00:58:24.681Z,94
2022-07-29T00:59:34.805Z,93.7
2022-07-29T01:00:45.153Z,93.6
2022-07-29T01:01:55.024Z,94.2
2022-07-29T01:03:04.175Z,94.6
2022-07-29T01:04:14.280Z,95.5
2022-07-29T01:05:24.411Z,95.9
2022-07-29T01:06:34.514Z,95.4
2022-07-29T01:07:44.637Z,95.3
2022-07-29T01:10:04.870Z,95.6
2022-07-29T01:11:14.993Z,95.6
2022-07-29T01:12:25.116Z,94.6
2022-07-29T01:13:35.227Z,94.2
2022-07-29T01:14:45.334Z,94.9
2022-07-29T01:15:55.460Z,94.3
2022-07-29T01:17:05.573Z,94.1
2022-07-29T01:18:14.712Z,94.2
2022-07-29T01:19:24.839Z,95.3
2022-07-29T01:20:34.945Z,94.1
2022-07-29T01:21:45.077Z,93.5
2022-07-29T01:22:55.193Z,93.7
2022-07-29T01:24:05.296Z,93.9
2022-07-29T01:25:15.425Z,94.7
2022-07-29T01:26:25.533Z,95.6
2022-07-29T01:27:35.654Z,96.4
2022-07-29T01:28:45.775Z,97.1
2022-07-29T01:29:55.901Z,97
2022-07-29T01:31:06.247Z,96.2
2022-07-29T01:32:16.361Z,95.6
2022-07-29T01:33:25.253Z,95.4
2022-07-29T01:34:35.615Z,96.4
2022-07-29T01:35:45.469Z,96.2
2022-07-29T01:36:55.590Z,95
2022-07-29T01:38:05.703Z,94.8
2022-07-29T01:39:15.825Z,94.6
2022-07-29T01:40:25.945Z,94.8
2022-07-29T01:41:36.324Z,95.2
2022-07-29T01:42:46.176Z,95.2
2022-07-29T01:43:56.296Z,95.8
2022-07-29T01:45:06.404Z,95.7
2022-07-29T01:46:16.531Z,96.2
2022-07-29T01:47:26.641Z,96.3
2022-07-29T01:48:35.778Z,95.7
2022-07-29T01:49:45.898Z,95.9
2022-07-29T01:50:56.270Z,95.7
2022-07-29T01:52:06.126Z,94.9
2022-07-29T01:53:16.256Z,95.2
2022-07-29T01:54:26.363Z,94.9
2022-07-29T01:55:36.486Z,94.7
2022-07-29T01:56:46.611Z,95.2
2022-07-29T01:59:06.840Z,95.7
2022-07-29T02:00:16.968Z,95.5
2022-07-29T02:01:27.077Z,96.1
2022-07-29T02:02:37.187Z,95.9
2022-07-29T02:03:46.327Z,95.8
2022-07-29T02:04:56.451Z,94.3
2022-07-29T02:06:06.554Z,95.2
2022-07-29T02:07:16.682Z,94.8
2022-07-29T02:08:26.795Z,94.8
2022-07-29T02:09:36.927Z,95.5
2022-07-29T02:10:46.064Z,95.5
2022-07-29T02:11:56.173Z,95.3
2022-07-29T02:13:06.297Z,94
2022-07-29T02:14:16.405Z,93.8
2022-07-29T02:15:26.531Z,94.4
2022-07-29T02:16:36.639Z,95.9
2022-07-29T02:17:47.021Z,96.6
2022-07-29T02:18:56.874Z,96.8
2022-07-29T02:20:06.997Z,96.9
2022-07-29T02:21:17.117Z,96.6
2022-07-29T02:22:27.224Z,96.1
2022-07-29T02:23:37.349Z,96.5
2022-07-29T02:24:47.476Z,97
2022-07-29T02:27:06.718Z,96.4
2022-07-29T02:28:17.106Z,96.4
2022-07-29T02:29:27.215Z,95.8
2022-07-29T02:30:37.063Z,95.5
2022-07-29T02:31:47.178Z,95.8
2022-07-29T02:34:07.706Z,95.8
2022-07-29T02:35:17.542Z,96.6
2022-07-29T02:36:27.666Z,96.2
2022-07-29T02:37:37.768Z,96.3
2022-07-29T02:38:47.890Z,95.9
2022-07-29T02:39:58.015Z,95.8
2022-07-29T02:41:07.145Z,95.8
2022-07-29T02:42:17.263Z,95.5
2022-07-29T02:43:27.388Z,95.7
2022-07-29T02:44:37.502Z,95.3
2022-07-29T02:45:47.611Z,95.9
2022-07-29T02:48:07.847Z,96.6
2022-07-29T02:49:16.987Z,96.3
2022-07-29T02:50:26.126Z,96.8
2022-07-29T02:51:36.241Z,95.8
2022-07-29T02:52:46.364Z,96.5
2022-07-29T02:53:56.490Z,96.4
2022-07-29T02:55:06.593Z,95.3
2022-07-29T02:56:16.719Z,96.1
2022-07-29T02:57:27.099Z,96.1
2022-07-29T02:58:36.955Z,96
2022-07-29T02:59:47.064Z,96.4
2022-07-29T03:00:57.183Z,96.1
2022-07-29T03:02:06.342Z,96.2
2022-07-29T03:03:15.460Z,96.3
2022-07-29T03:04:25.588Z,96.2
2022-07-29T03:05:35.712Z,96.2
2022-07-29T03:06:45.813Z,96.7
2022-07-29T03:09:06.318Z,96.4
2022-07-29T03:10:16.177Z,96.8
2022-07-29T03:11:26.288Z,97.2
2022-07-29T03:12:36.408Z,97.4
2022-07-29T03:13:46.522Z,96.3
2022-07-29T03:14:56.653Z,96.7
2022-07-29T03:16:06.755Z,95.1
2022-07-29T03:17:16.880Z,95.9
2022-07-29T03:18:26.016Z,95.8
2022-07-29T03:19:36.140Z,95.7
2022-07-29T03:20:46.251Z,96.6
2022-07-29T03:21:56.372Z,96.9
2022-07-29T03:23:06.492Z,96.4
2022-07-29T03:24:16.603Z,96.1
2022-07-29T03:25:26.721Z,96.6
2022-07-29T03:26:36.831Z,97.3
2022-07-29T03:27:46.957Z,96.8
2022-07-29T03:28:57.067Z,97
2022-07-29T03:30:07.193Z,97.5
2022-07-29T03:31:17.320Z,97.8
2022-07-29T03:32:27.421Z,97
2022-07-29T03:33:36.556Z,96.8
2022-07-29T03:34:46.679Z,96.9
2022-07-29T03:35:56.798Z,96.5
2022-07-29T03:37:06.919Z,97
2022-07-29T03:38:17.036Z,96.2
2022-07-29T03:39:27.142Z,97.5
2022-07-29T03:40:37.275Z,97.2
2022-07-29T03:41:47.383Z,97
2022-07-29T03:42:57.511Z,97
2022-07-29T03:44:07.613Z,97
2022-07-29T03:45:17.000Z,97.3
2022-07-29T03:46:27.849Z,97
2022-07-29T03:47:37.973Z,97.5
2022-07-29T03:48:47.113Z,97.9
2022-07-29T03:49:57.232Z,98.1
2022-07-29T03:51:07.335Z,98
2022-07-29T03:52:17.467Z,97.7
2022-07-29T03:53:27.570Z,97.3
2022-07-29T03:54:37.699Z,97
2022-07-29T03:55:47.809Z,97.1
2022-07-29T03:56:57.939Z,96.8
2022-07-29T03:58:08.050Z,97.1
2022-07-29T03:59:18.169Z,97.2
2022-07-29T04:00:28.297Z,97.1
2022-07-29T04:01:38.406Z,97.1
2022-07-29T04:02:48.514Z,96.4
2022-07-29T04:03:57.654Z,96
2022-07-29T04:05:07.766Z,96.3
2022-07-29T04:06:17.881Z,96
2022-07-29T04:07:28.014Z,96
2022-07-29T04:08:38.135Z,95.5
2022-07-29T04:09:48.244Z,95.3
2022-07-29T04:10:58.362Z,95.1
2022-07-29T04:12:08.470Z,95.1
2022-07-29T04:13:18.598Z,95.4
2022-07-29T04:14:28.721Z,95.1
2022-07-29T04:15:38.838Z,95.1
2022-07-29T04:16:48.948Z,94.9
2022-07-29T04:17:59.076Z,95.1
2022-07-29T04:19:08.207Z,94.8
2022-07-29T04:20:18.319Z,94.8
2022-07-29T04:21:28.699Z,94.3
2022-07-29T04:22:38.554Z,94.3
2022-07-29T04:23:48.683Z,93.7
2022-07-29T04:24:58.793Z,93.2
2022-07-29T04:26:08.900Z,93.3
2022-07-29T04:27:19.028Z,92.7
2022-07-29T04:28:29.149Z,92.5
2022-07-29T04:29:39.251Z,92.5
2022-07-29T04:30:49.378Z,92.3
2022-07-29T04:31:59.502Z,92.4
2022-07-29T04:33:09.623Z,91.9
2022-07-29T04:35:28.861Z,91.8
2022-07-29T04:36:38.982Z,92
2022-07-29T04:37:49.106Z,92
2022-07-29T04:40:09.341Z,92.4
2022-07-29T04:41:19.462Z,92.8
2022-07-29T04:42:29.566Z,93.1
2022-07-29T04:43:39.960Z,92.5
2022-07-29T04:44:49.000Z,93.5
2022-07-29T04:45:59.928Z,93.2
2022-07-29T04:47:10.048Z,93.4
2022-07-29T04:48:20.155Z,93.2
2022-07-29T04:49:29.291Z,92.8
2022-07-29T04:50:39.417Z,91.5
2022-07-29T04:51:49.524Z,91.2
2022-07-29T04:54:09.757Z,90.2
2022-07-29T04:55:18.910Z,89.6
2022-07-29T04:56:28.041Z,89.7
2022-07-29T04:57:38.154Z,89.8
2022-07-29T04:58:48.540Z,89.5
2022-07-29T04:59:58.390Z,89.3
2022-07-29T05:01:08.779Z,88.8
2022-07-29T05:02:18.638Z,89.1
2022-07-29T05:03:28.740Z,87.8
2022-07-29T05:04:38.867Z,88.6
2022-07-29T05:05:48.987Z,89.2
2022-07-29T05:06:59.094Z,88.6
2022-07-29T05:08:08.247Z,88.7
2022-07-29T05:09:17.384Z,88.7
2022-07-29T05:10:27.486Z,88.4
2022-07-29T05:11:37.875Z,88
2022-07-29T05:12:47.729Z,87.6
2022-07-29T05:13:57.852Z,87.7
2022-07-29T05:15:07.968Z,88
2022-07-29T05:16:18.088Z,87.8
2022-07-29T05:17:28.207Z,88.1
2022-07-29T05:18:38.582Z,85.5
2022-07-29T05:19:48.435Z,86.8
2022-07-29T05:20:58.558Z,87.8
2022-07-29T05:22:08.674Z,87.3
2022-07-29T05:23:18.783Z,87.2
2022-07-29T05:24:27.915Z,85.8
2022-07-29T05:25:38.043Z,85.1
2022-07-29T05:26:48.422Z,84.2
2022-07-29T05:27:58.277Z,85.2
2022-07-29T05:29:08.383Z,86.3
2022-07-29T05:30:18.509Z,85.5
2022-07-29T05:31:28.635Z,83.9
2022-07-29T05:32:38.740Z,84.1
2022-07-29T05:33:48.864Z,83.8
2022-07-29T05:34:58.973Z,82.8
2022-07-29T05:36:09.095Z,82.5
2022-07-29T05:37:19.220Z,80.5
2022-07-29T05:38:29.332Z,80.5
2022-07-29T05:39:38.473Z,78
2022-07-29T05:40:48.577Z,77
2022-07-29T05:41:58.974Z,77.6
2022-07-29T05:43:08.815Z,76.2
2022-07-29T05:44:18.935Z,77.8
2022-07-29T05:45:29.056Z,76.1
2022-07-29T05:46:39.165Z,74.8
2022-07-29T05:47:49.577Z,77.6
2022-07-29T05:48:59.417Z,77.1
2022-07-29T05:50:09.525Z,75.8
2022-07-29T05:51:19.639Z,75.5
2022-07-29T05:52:30.025Z,74.5
2022-07-29T05:53:39.880Z,75
2022-07-29T05:54:49.020Z,75
2022-07-29T05:55:59.121Z,74.9
2022-07-29T05:57:09.249Z,76.5
2022-07-29T05:58:19.355Z,74.3
2022-07-29T05:59:29.491Z,76.2
2022-07-29T06:00:39.592Z,74.2
2022-07-29T06:01:49.715Z,74.8
2022-07-29T06:04:09.948Z,75.2
2022-07-29T06:05:19.083Z,73.5
2022-07-29T06:06:29.212Z,74.2
2022-07-29T06:07:39.322Z,73.9
2022-07-29T06:08:49.444Z,74.6
2022-07-29T06:09:59.568Z,74.5
2022-07-29T06:11:09.675Z,72.7
2022-07-29T06:12:19.787Z,73.4
2022-07-29T06:13:29.919Z,72.4
2022-07-29T06:14:40.022Z,70.7
2022-07-29T06:15:50.144Z,70.7
2022-07-29T06:17:00.260Z,71.4
2022-07-29T06:18:10.375Z,71.3
2022-07-29T06:19:20.498Z,70.5
2022-07-29T06:20:29.626Z,71.2
2022-07-29T06:21:39.761Z,71.4
2022-07-29T06:22:49.866Z,71.1
2022-07-29T06:23:59.987Z,71.3
2022-07-29T06:25:10.109Z,70.8
2022-07-29T06:26:20.220Z,71.9
2022-07-29T06:27:30.345Z,71.4
2022-07-29T06:28:40.466Z,72.5
2022-07-29T06:29:50.575Z,71.8
2022-07-29T06:31:00.694Z,69.7
2022-07-29T06:32:10.816Z,70.3
2022-07-29T06:33:20.918Z,69.5
2022-07-29T06:34:31.310Z,68.1
2022-07-29T06:35:40.170Z,68.6
2022-07-29T06:36:50.306Z,66.8
2022-07-29T06:38:00.415Z,66.6
2022-07-29T06:39:10.537Z,66.9
2022-07-29T06:40:20.641Z,65.8
2022-07-29T06:41:30.761Z,65.2
2022-07-29T06:42:40.888Z,65.8
2022-07-29T06:43:51.260Z,65.3
2022-07-29T06:45:01.110Z,64.8
2022-07-29T06:46:11.235Z,64.8
2022-07-29T06:47:21.346Z,63
2022-07-29T06:48:31.470Z,63.7
2022-07-29T06:49:41.590Z,65.2
2022-07-29T06:50:50.723Z,63.9
2022-07-29T06:53:10.964Z,65.3
2022-07-29T06:54:21.342Z,65.1
2022-07-29T06:55:31.188Z,64.7
2022-07-29T06:56:41.312Z,64.8
2022-07-29T06:57:51.426Z,63.4
2022-07-29T06:59:01.547Z,63.7
2022-07-29T07:00:11.653Z,62.8
2022-07-29T07:01:21.771Z,61.9
2022-07-29T07:02:31.900Z,63.4
2022-07-29T07:03:42.019Z,62.6
2022-07-29T07:04:52.393Z,61.1
2022-07-29T07:06:01.273Z,62.1
2022-07-29T07:07:11.381Z,59.1
2022-07-29T07:08:21.489Z,60.8
2022-07-29T07:09:31.625Z,60
2022-07-29T07:11:51.849Z,60
2022-07-29T07:13:01.977Z,58.1
2022-07-29T07:14:12.086Z,58.1
2022-07-29T07:15:22.212Z,59.7
2022-07-29T07:16:32.316Z,58.5
2022-07-29T07:17:42.446Z,59.3
2022-07-29T07:18:52.568Z,59
2022-07-29T07:20:02.673Z,56.8
2022-07-29T07:21:11.812Z,57.9
2022-07-29T07:22:21.938Z,59
2022-07-29T07:23:32.046Z,58.2
2022-07-29T07:24:42.160Z,57.9
2022-07-29T07:25:52.282Z,57.3
2022-07-29T07:27:02.410Z,57.8
2022-07-29T07:28:12.785Z,56.9
2022-07-29T07:29:22.629Z,58.2
2022-07-29T07:30:32.754Z,57.5
2022-07-29T07:31:42.864Z,56.5
2022-07-29T07:32:52.988Z,56.9
2022-07-29T07:34:03.115Z,56.5
2022-07-29T07:35:13.225Z,56
2022-07-29T07:36:22.364Z,56.8
2022-07-29T07:37:32.481Z,56
2022-07-29T07:38:42.592Z,55.6
2022-07-29T07:39:52.704Z,55.3
2022-07-29T07:42:12.948Z,55.8
2022-07-29T07:43:23.073Z,56.1
2022-07-29T07:44:33.194Z,55.7
2022-07-29T07:45:43.305Z,56.2
2022-07-29T07:46:53.429Z,56.7
2022-07-29T07:48:03.546Z,54.6
2022-07-29T07:49:13.650Z,53.9
2022-07-29T07:50:23.774Z,54.8
2022-07-29T07:51:32.911Z,55.2
2022-07-29T07:52:43.035Z,52.9
2022-07-29T07:53:53.145Z,53.5
2022-07-29T07:55:03.272Z,53.5
2022-07-29T07:56:13.385Z,54.1
2022-07-29T07:57:23.504Z,53.3
2022-07-29T07:58:33.614Z,53.9
2022-07-29T07:59:43.740Z,54.8
2022-07-29T08:00:53.850Z,54.8
2022-07-29T08:02:03.978Z,53.2
2022-07-29T08:03:14.096Z,53.2
2022-07-29T08:04:24.207Z,54.2
2022-07-29T08:05:34.332Z,53.1
2022-07-29T08:06:43.449Z,53
2022-07-29T08:07:53.831Z,53.6
2022-07-29T08:10:13.810Z,53.9
2022-07-29T08:11:23.931Z,54.1
2022-07-29T08:12:34.054Z,52.5
2022-07-29T08:13:44.158Z,54.3
2022-07-29T08:14:54.544Z,54.8
2022-07-29T08:16:04.403Z,52.4
2022-07-29T08:17:14.512Z,53.5
2022-07-29T08:18:24.625Z,54.2
2022-07-29T08:19:34.750Z,54.2
2022-07-29T08:20:44.876Z,55.2
2022-07-29T08:21:54.002Z,54.7
2022-07-29T08:24:14.232Z,54.6
2022-07-29T08:25:24.357Z,55.8
2022-07-29T08:26:34.484Z,54.9
2022-07-29T08:27:44.586Z,54.7
2022-07-29T08:28:54.709Z,54.5
2022-07-29T08:30:04.828Z,55.4
2022-07-29T08:31:14.949Z,54.6
2022-07-29T08:32:25.058Z,54.8
2022-07-29T08:33:35.178Z,55.2
2022-07-29T08:34:45.563Z,54.3
2022-07-29T08:35:55.425Z,55.5
2022-07-29T08:37:04.559Z,54.6
2022-07-29T08:38:14.665Z,54.8
2022-07-29T08:39:24.778Z,55
2022-07-29T08:40:34.900Z,54.6
2022-07-29T08:41:45.025Z,55.9
2022-07-29T08:42:55.133Z,55.4
2022-07-29T08:44:05.256Z,54.3
2022-07-29T08:45:15.381Z,53.6
2022-07-29T08:46:25.000Z,54.1
2022-07-29T08:47:35.614Z,53.7
2022-07-29T08:48:45.715Z,54.1
2022-07-29T08:49:55.841Z,54.2
2022-07-29T08:51:05.950Z,51.7
2022-07-29T08:52:15.084Z,50.5
2022-07-29T08:53:25.214Z,50.7
2022-07-29T08:54:35.321Z,52
2022-07-29T08:55:45.442Z,49.5
2022-07-29T08:56:55.567Z,49.5
2022-07-29T08:59:15.792Z,49.5
2022-07-29T09:00:25.921Z,48.4
2022-07-29T09:01:36.025Z,48.2
2022-07-29T09:02:46.148Z,47.1
2022-07-29T09:03:56.256Z,47.6
2022-07-29T09:05:06.374Z,49
2022-07-29T09:06:16.754Z,48.2
2022-07-29T09:07:25.630Z,47.5
2022-07-29T09:08:35.754Z,45.8
2022-07-29T09:09:45.877Z,45
2022-07-29T09:10:55.986Z,45.9
2022-07-29T09:12:06.099Z,47.9
2022-07-29T09:13:16.228Z,47.9
2022-07-29T09:14:26.334Z,46.9
2022-07-29T09:15:36.454Z,48.3
2022-07-29T09:16:46.582Z,47.1
2022-07-29T09:17:56.689Z,46.7
2022-07-29T09:19:06.810Z,45.9
2022-07-29T09:20:16.932Z,47.9
2022-07-29T09:21:27.051Z,47.6
2022-07-29T09:22:36.172Z,48.8
2022-07-29T09:23:46.296Z,47.4
2022-07-29T09:24:56.416Z,48
2022-07-29T09:26:06.524Z,49.5
2022-07-29T09:27:16.648Z,50.1
2022-07-29T09:28:26.753Z,45.6
2022-07-29T09:29:36.877Z,47.1
2022-07-29T09:30:47.005Z,46.9
2022-07-29T09:33:07.238Z,47.7
2022-07-29T09:34:17.607Z,48.4
2022-07-29T09:35:27.719Z,48.1
2022-07-29T09:36:37.582Z,48.9
2022-07-29T09:37:46.716Z,48.3
2022-07-29T09:38:56.825Z,47.9
2022-07-29T09:41:17.066Z,47.3
2022-07-29T09:42:27.194Z,48.7
2022-07-29T09:43:37.303Z,48.8
2022-07-29T09:44:47.414Z,48.9
2022-07-29T09:45:57.539Z,50.4
2022-07-29T09:47:07.660Z,49.8
2022-07-29T09:48:18.030Z,47.6
2022-07-29T09:49:27.885Z,46.5
2022-07-29T09:50:38.011Z,47.3
2022-07-29T09:51:48.116Z,47.3
2022-07-29T09:52:57.257Z,47.7
2022-07-29T09:54:07.382Z,47.1
2022-07-29T09:55:17.488Z,47.7
2022-07-29T09:56:27.612Z,46.8
2022-07-29T09:57:37.994Z,47.4
2022-07-29T09:58:47.841Z,46.5
2022-07-29T09:59:57.242Z,47.4
2022-07-29T10:02:17.213Z,48.3
2022-07-29T10:03:27.334Z,47.5
2022-07-29T10:04:37.459Z,47.9
2022-07-29T10:05:47.844Z,48.1
2022-07-29T10:06:57.682Z,47.5
2022-07-29T10:08:07.807Z,47.5
2022-07-29T10:09:17.933Z,46.5
2022-07-29T10:10:28.050Z,48.1
2022-07-29T10:11:38.000Z,49.3
2022-07-29T10:12:48.265Z,47.5
2022-07-29T10:13:58.392Z,48.1
2022-07-29T10:15:07.529Z,48
2022-07-29T10:16:17.635Z,48.6
2022-07-29T10:18:37.887Z,46
2022-07-29T10:19:48.003Z,46.4
2022-07-29T10:20:58.104Z,46
2022-07-29T10:22:08.227Z,45.3
2022-07-29T10:23:18.346Z,45.2
2022-07-29T10:24:28.459Z,45.2
2022-07-29T10:25:38.573Z,45.1
2022-07-29T10:26:48.701Z,44.4
2022-07-29T10:27:58.808Z,45.5
2022-07-29T10:30:19.050Z,44
2022-07-29T10:31:28.190Z,43.9
2022-07-29T10:32:38.296Z,43.7
2022-07-29T10:33:48.423Z,44.1
2022-07-29T10:34:58.536Z,44.6
2022-07-29T10:36:08.659Z,45.1
2022-07-29T10:37:19.047Z,44.5
2022-07-29T10:38:28.894Z,42.7
2022-07-29T10:39:39.018Z,43.7
2022-07-29T10:40:49.122Z,43
2022-07-29T10:41:59.249Z,42.8
2022-07-29T10:43:09.370Z,43.3
2022-07-29T10:44:19.736Z,42.6
2022-07-29T10:45:29.594Z,44.8
2022-07-29T10:46:38.732Z,45.1
2022-07-29T10:47:48.839Z,45.4
2022-07-29T10:48:58.965Z,45.4
2022-07-29T10:50:09.074Z,44.6
2022-07-29T10:51:19.200Z,44.8
2022-07-29T10:52:29.310Z,45.3
2022-07-29T10:53:39.432Z,45.1
2022-07-29T10:55:59.673Z,45.6
2022-07-29T10:57:09.793Z,45.7
2022-07-29T10:58:19.910Z,44.2
2022-07-29T10:59:30.014Z,44.6
2022-07-29T11:00:40.142Z,45.8
2022-07-29T11:01:49.276Z,44.8
2022-07-29T11:02:59.384Z,44.5
2022-07-29T11:04:09.505Z,45.2
2022-07-29T11:05:19.635Z,45.2
2022-07-29T11:06:29.748Z,46
2022-07-29T11:07:39.859Z,46.1
2022-07-29T11:08:49.982Z,45.3
2022-07-29T11:10:00.106Z,48.5
2022-07-29T11:12:20.334Z,45.5
2022-07-29T11:13:30.442Z,47
2022-07-29T11:14:40.573Z,45.6
2022-07-29T11:15:50.679Z,46
2022-07-29T11:17:00.076Z,47
2022-07-29T11:18:09.935Z,45.9
2022-07-29T11:19:20.044Z,46.7
2022-07-29T11:20:30.163Z,46.3
2022-07-29T11:21:40.279Z,46.9
2022-07-29T11:22:50.406Z,46.6
2022-07-29T11:24:00.514Z,46.5
2022-07-29T11:25:10.639Z,47.1
2022-07-29T11:26:20.761Z,47.1
2022-07-29T11:27:30.877Z,46.4
2022-07-29T11:29:51.112Z,46.4
2022-07-29T11:31:01.228Z,45.7
2022-07-29T11:32:10.369Z,46.7
2022-07-29T11:33:20.485Z,46.7
2022-07-29T11:34:30.604Z,45.5
2022-07-29T11:35:40.706Z,46.9
2022-07-29T11:36:50.830Z,46.9
2022-07-29T11:38:00.945Z,45.9
2022-07-29T11:40:21.176Z,44.9
2022-07-29T11:41:31.297Z,45.9
2022-07-29T11:42:41.672Z,45.8
2022-07-29T11:43:51.527Z,45.3
2022-07-29T11:45:01.652Z,44.1
2022-07-29T11:46:11.777Z,44.2
2022-07-29T11:47:20.897Z,44.9
2022-07-29T11:48:31.028Z,46.1
2022-07-29T11:49:41.135Z,46
2022-07-29T11:50:51.261Z,45.2
2022-07-29T11:52:01.368Z,44.9
2022-07-29T11:53:11.498Z,44.9
2022-07-29T11:54:21.614Z,45.6
2022-07-29T11:55:31.721Z,44.5
2022-07-29T11:56:41.838Z,45.1
2022-07-29T11:57:51.970Z,46.1
2022-07-29T11:59:02.071Z,44.6
2022-07-29T12:00:12.188Z,44.8
2022-07-29T12:01:22.308Z,45.8
2022-07-29T12:02:31.448Z,45.6
2022-07-29T12:03:41.563Z,44.2
2022-07-29T12:04:51.687Z,44.3
2022-07-29T12:06:01.794Z,45.2
2022-07-29T12:07:11.924Z,45.1
2022-07-29T12:08:22.045Z,45.9
2022-07-29T12:09:32.147Z,45.2
2022-07-29T12:10:42.273Z,45
2022-07-29T12:11:52.382Z,44.1
2022-07-29T12:13:02.498Z,45.3
2022-07-29T12:14:12.616Z,44.6
2022-07-29T12:15:22.744Z,46
2022-07-29T12:16:32.863Z,44.3
2022-07-29T12:17:41.988Z,44.8
2022-07-29T12:18:52.102Z,45
2022-07-29T12:20:02.234Z,44.6
2022-07-29T12:21:12.354Z,44.5
2022-07-29T12:22:22.459Z,45.3
2022-07-29T12:23:32.590Z,45.1
2022-07-29T12:24:42.693Z,45
2022-07-29T12:25:52.815Z,45.4
2022-07-29T12:27:02.934Z,46.4
2022-07-29T12:28:13.059Z,45.7
2022-07-29T12:29:23.165Z,44.9
2022-07-29T12:30:33.286Z,45.3
2022-07-29T12:31:43.408Z,45.2
2022-07-29T12:32:52.545Z,46.2
2022-07-29T12:34:02.650Z,43.9
2022-07-29T12:35:12.775Z,45.1
2022-07-29T12:36:22.899Z,45.2
2022-07-29T12:37:33.020Z,45.7
2022-07-29T12:38:43.118Z,43.6
2022-07-29T12:39:53.510Z,45.1
2022-07-29T12:41:03.361Z,44.5
2022-07-29T12:43:23.596Z,44.9
2022-07-29T12:44:33.719Z,44.2
2022-07-29T12:45:44.091Z,45.1
2022-07-29T12:46:53.947Z,45.9
2022-07-29T12:48:03.084Z,44.3
2022-07-29T12:51:33.440Z,44.6
2022-07-29T12:52:42.578Z,45.1
2022-07-29T12:53:51.718Z,44
2022-07-29T12:55:01.832Z,44.4
2022-07-29T12:57:22.076Z,45.1
2022-07-29T12:58:32.198Z,44.7
2022-07-29T12:59:42.312Z,42.3
2022-07-29T13:00:52.434Z,44.4
2022-07-29T13:02:02.533Z,44.2
2022-07-29T13:03:12.660Z,41.5
2022-07-29T13:04:22.768Z,41.8
2022-07-29T13:05:32.898Z,41.4
2022-07-29T13:06:43.003Z,39.8
2022-07-29T13:07:53.126Z,40.1
2022-07-29T13:09:02.257Z,40.3
2022-07-29T13:11:22.504Z,42.3
2022-07-29T13:12:31.644Z,39.8
2022-07-29T13:13:40.781Z,40.3
2022-07-29T13:14:50.904Z,39.9
2022-07-29T13:16:01.005Z,39.2
2022-07-29T13:18:21.245Z,38.2
2022-07-29T13:19:31.356Z,38.1
2022-07-29T13:20:41.484Z,38.1
2022-07-29T13:21:51.604Z,36.8
2022-07-29T13:23:01.726Z,37.4
2022-07-29T13:24:11.834Z,39
2022-07-29T13:25:21.957Z,39.6
2022-07-29T13:26:32.063Z,37.8
2022-07-29T13:27:42.181Z,39.6
2022-07-29T13:28:51.316Z,40.2
2022-07-29T13:30:01.439Z,38.8
2022-07-29T13:31:11.551Z,39.4
2022-07-29T13:32:21.675Z,38.7
2022-07-29T13:33:31.799Z,38.6
2022-07-29T13:34:41.903Z,39.5
2022-07-29T13:35:52.028Z,38.3
2022-07-29T13:38:12.257Z,36.5
2022-07-29T13:39:22.382Z,37.5
2022-07-29T13:40:32.502Z,37.9
2022-07-29T13:41:42.626Z,36.7
2022-07-29T13:42:51.767Z,37.2
2022-07-29T13:44:00.901Z,35.5
2022-07-29T13:45:11.005Z,34.3
2022-07-29T13:46:21.134Z,34.3
2022-07-29T13:47:31.242Z,36.1
2022-07-29T13:48:41.361Z,35.3
2022-07-29T13:49:51.489Z,35.5
2022-07-29T13:51:01.861Z,36
2022-07-29T13:52:11.724Z,34.3
2022-07-29T13:53:21.829Z,35.3
2022-07-29T13:54:31.237Z,35.8
2022-07-29T13:55:40.112Z,35.1
2022-07-29T13:56:49.051Z,34
2022-07-29T13:57:59.374Z,35.4
2022-07-29T13:59:09.499Z,33.7
2022-07-29T14:00:19.602Z,35.5
2022-07-29T14:01:29.720Z,37
2022-07-29T14:02:39.839Z,38
2022-07-29T14:03:49.962Z,40.2
2022-07-29T14:05:00.071Z,41.2
2022-07-29T14:06:10.196Z,42.2
2022-07-29T14:07:20.307Z,42.4
2022-07-29T14:08:30.428Z,43.6
2022-07-29T14:09:40.552Z,44
2022-07-29T14:10:50.673Z,44
2022-07-29T14:14:20.043Z,45.1
2022-07-29T14:15:29.178Z,45.2
2022-07-29T14:16:38.308Z,45
2022-07-29T14:17:48.439Z,44.8
2022-07-29T14:18:58.547Z,45.3
2022-07-29T14:21:18.781Z,45.4
2022-07-29T14:22:28.904Z,45
2022-07-29T14:23:39.009Z,46
2022-07-29T14:24:49.132Z,47
2022-07-29T14:25:59.240Z,44.9
2022-07-29T14:27:09.360Z,44.8
2022-07-29T14:28:19.484Z,45.3
2022-07-29T14:29:29.593Z,44.6
2022-07-29T14:30:39.717Z,45.5
2022-07-29T14:31:48.853Z,45.4
2022-07-29T14:32:58.961Z,44.1
2022-07-29T14:35:19.214Z,43.3
2022-07-29T14:36:28.338Z,43.7
2022-07-29T14:37:37.490Z,43.6
2022-07-29T14:38:47.593Z,42
2022-07-29T14:39:57.721Z,40.1
2022-07-29T14:41:07.826Z,38.8
2022-07-29T14:42:17.953Z,37.5
2022-07-29T14:43:28.073Z,35.5
2022-07-29T14:44:38.181Z,35.1
2022-07-29T14:45:48.303Z,37.3
2022-07-29T14:46:58.424Z,37
2022-07-29T14:48:08.534Z,36.8
2022-07-29T14:49:17.688Z,37.5
2022-07-29T14:50:26.631Z,38.3
2022-07-29T14:51:36.929Z,40.7
2022-07-29T14:52:47.057Z,40.1
2022-07-29T14:53:57.171Z,40
2022-07-29T14:55:07.295Z,39.6
2022-07-29T14:56:17.674Z,39.5
2022-07-29T14:57:27.340Z,39.3
2022-07-29T14:58:37.638Z,40.9
2022-07-29T14:59:47.760Z,40.6
2022-07-29T15:00:57.886Z,41.3
2022-07-29T15:02:07.016Z,41.3
2022-07-29T15:03:16.151Z,41.8
2022-07-29T15:04:26.269Z,42.5
2022-07-29T15:06:46.509Z,41.3
2022-07-29T15:07:56.634Z,40.3
2022-07-29T15:09:06.740Z,40.8
2022-07-29T15:11:26.795Z,40.2
2022-07-29T15:12:37.100Z,40.3
2022-07-29T15:13:47.027Z,41
2022-07-29T15:14:57.326Z,40.6
2022-07-29T15:16:07.438Z,41.4
2022-07-29T15:17:16.587Z,40.8
2022-07-29T15:18:25.720Z,40.6
2022-07-29T15:19:35.650Z,41.8
2022-07-29T15:20:45.956Z,41.9
2022-07-29T15:21:56.063Z,41.9
2022-07-29T15:23:06.193Z,42.3
2022-07-29T15:24:16.314Z,41.9
2022-07-29T15:25:26.422Z,42.6
2022-07-29T15:26:36.821Z,42.9
2022-07-29T15:28:56.775Z,41.6
2022-07-29T15:30:06.892Z,40.8
2022-07-29T15:31:16.832Z,41.9
2022-07-29T15:32:27.129Z,41.2
2022-07-29T15:33:36.266Z,41.7
2022-07-29T15:34:46.390Z,41.6
2022-07-29T15:35:56.314Z,41.8
2022-07-29T15:37:06.619Z,40.1
2022-07-29T15:39:26.858Z,37.2
2022-07-29T15:40:35.995Z,36.1
2022-07-29T15:41:45.131Z,35.5
2022-07-29T15:42:55.245Z,35.7
2022-07-29T15:45:15.295Z,35.9
2022-07-29T15:46:25.607Z,35.1
2022-07-29T15:47:35.713Z,35
2022-07-29T15:48:45.839Z,34.7
2022-07-29T15:49:55.965Z,34.3
2022-07-29T15:51:06.067Z,34.5
2022-07-29T15:52:16.192Z,35.8
2022-07-29T15:53:26.123Z,36.9
2022-07-29T15:54:36.419Z,36.9
2022-07-29T15:55:46.364Z,37.4
2022-07-29T15:56:55.677Z,38.4
2022-07-29T15:58:05.792Z,40.1
2022-07-29T15:59:15.740Z,41.6
2022-07-29T16:00:26.025Z,42.2
2022-07-29T16:01:36.146Z,42.6
2022-07-29T16:02:46.267Z,40.6
2022-07-29T16:03:56.380Z,40.4
2022-07-29T16:05:06.508Z,40.2
2022-07-29T16:06:15.643Z,40.7
2022-07-29T16:07:24.772Z,39.9
2022-07-29T16:08:34.896Z,41.9
2022-07-29T16:09:45.012Z,42.8
2022-07-29T16:10:55.137Z,43.1
2022-07-29T16:12:05.244Z,42.8
2022-07-29T16:13:15.375Z,43.8
2022-07-29T16:14:25.491Z,46.5
2022-07-29T16:15:35.907Z,46.8
2022-07-29T16:16:45.730Z,47.3
2022-07-29T16:17:55.838Z,49.1
2022-07-29T16:19:04.980Z,48.9
2022-07-29T16:20:14.112Z,49.1
2022-07-29T16:21:24.237Z,49.3
2022-07-29T16:22:34.364Z,50
2022-07-29T16:23:44.469Z,50.2
2022-07-29T16:24:54.597Z,50.4
2022-07-29T16:27:14.817Z,50.7
2022-07-29T16:28:24.933Z,51.3
2022-07-29T16:29:35.066Z,50.9